createdAt,value
2019-02-15T00:00:01.895Z,66.14
2019-02-15T00:01:07.176Z,66.64
2019-02-15T00:02:10.893Z,66.67
2019-02-15T00:03:14.611Z,66.67
2019-02-15T00:04:18.254Z,66.83
2019-02-15T00:05:21.853Z,67.07
2019-02-15T00:06:25.550Z,67.09
2019-02-15T00:07:29.288Z,67.11
2019-02-15T00:08:33.234Z,67.10
2019-02-15T00:09:37.244Z,66.78
2019-02-15T00:10:40.987Z,66.82
2019-02-15T00:11:44.629Z,66.74
2019-02-15T00:12:48.273Z,66.73
2019-02-15T00:13:51.996Z,66.95
2019-02-15T00:14:55.574Z,67.59
2019-02-15T00:15:59.247Z,67.67
2019-02-15T00:17:02.966Z,67.30
2019-02-15T00:18:11.059Z,67.13
2019-02-15T00:19:28.386Z,67.03
2019-02-15T00:20:39.639Z,67.08
2019-02-15T00:21:43.335Z,67.16
2019-02-15T00:22:47.039Z,67.22
2019-02-15T00:23:50.694Z,67.06
2019-02-15T00:24:54.335Z,67.27
2019-02-15T00:25:58.113Z,67.32
2019-02-15T00:27:01.866Z,67.31
2019-02-15T00:28:05.571Z,67.49
2019-02-15T00:29:09.137Z,67.25
2019-02-15T00:30:12.853Z,66.94
2019-02-15T00:31:17.778Z,66.80
2019-02-15T00:32:21.463Z,67.15
2019-02-15T00:33:25.219Z,67.16
2019-02-15T00:34:28.953Z,67.22
2019-02-15T00:35:32.597Z,67.36
2019-02-15T00:36:36.642Z,67.51
2019-02-15T00:37:40.377Z,67.56
2019-02-15T00:38:43.975Z,67.59
2019-02-15T00:39:47.617Z,67.62
2019-02-15T00:40:51.264Z,67.28
2019-02-15T00:41:54.899Z,67.19
2019-02-15T00:42:58.539Z,67.11
2019-02-15T00:44:02.217Z,67.36
2019-02-15T00:45:08.224Z,67.57
2019-02-15T00:46:16.455Z,67.49
2019-02-15T00:47:37.808Z,67.50
2019-02-15T00:48:41.463Z,67.68
2019-02-15T00:49:46.152Z,67.83
2019-02-15T00:50:51.433Z,67.77
2019-02-15T00:51:56.641Z,67.66
2019-02-15T00:53:04.932Z,67.51
2019-02-15T00:54:13.209Z,67.32
2019-02-15T00:55:18.491Z,67.20
2019-02-15T00:56:38.849Z,67.08
2019-02-15T00:57:49.877Z,66.99
2019-02-15T00:58:55.191Z,66.95
2019-02-15T01:00:16.915Z,66.83
2019-02-15T01:01:28.250Z,66.91
2019-02-15T01:02:33.537Z,66.87
2019-02-15T01:03:45.858Z,66.83
2019-02-15T01:04:51.437Z,66.74
2019-02-15T01:06:02.403Z,66.56
2019-02-15T01:07:24.014Z,66.60
2019-02-15T01:08:45.752Z,66.74
2019-02-15T01:09:54.029Z,66.71
2019-02-15T01:11:05.384Z,66.76
2019-02-15T01:12:10.672Z,66.78
2019-02-15T01:13:14.820Z,66.66
2019-02-15T01:14:18.455Z,66.46
2019-02-15T01:15:22.104Z,66.63
2019-02-15T01:16:25.749Z,66.42
2019-02-15T01:17:29.390Z,66.51
2019-02-15T01:18:33.059Z,66.32
2019-02-15T01:19:36.701Z,66.64
2019-02-15T01:20:40.338Z,66.69
2019-02-15T01:21:43.981Z,66.78
2019-02-15T01:22:47.619Z,66.38
2019-02-15T01:23:51.547Z,66.22
2019-02-15T01:24:55.131Z,65.99
2019-02-15T01:26:00.344Z,65.93
2019-02-15T01:27:05.628Z,65.84
2019-02-15T01:28:10.911Z,65.81
2019-02-15T01:29:32.638Z,65.94
2019-02-15T01:30:37.930Z,65.80
2019-02-15T01:31:59.605Z,65.80
2019-02-15T01:33:05.018Z,65.79
2019-02-15T01:34:16.334Z,65.20
2019-02-15T01:35:33.642Z,65.18
2019-02-15T01:36:54.883Z,64.95
2019-02-15T01:38:06.378Z,65.17
2019-02-15T01:39:12.166Z,65.08
2019-02-15T01:40:17.451Z,65.10
2019-02-15T01:41:38.374Z,65.03
2019-02-15T01:42:43.658Z,65.16
2019-02-15T01:43:54.911Z,65.28
2019-02-15T01:45:03.134Z,64.80
2019-02-15T01:46:08.415Z,64.76
2019-02-15T01:47:13.740Z,65.03
2019-02-15T01:48:18.620Z,65.19
2019-02-15T01:49:22.276Z,65.54
2019-02-15T01:50:26.022Z,65.09
2019-02-15T01:51:29.666Z,65.06
2019-02-15T01:52:33.735Z,64.73
2019-02-15T01:53:37.460Z,64.58
2019-02-15T01:54:41.531Z,64.66
2019-02-15T01:55:45.180Z,64.53
2019-02-15T01:56:48.684Z,64.30
2019-02-15T01:57:52.415Z,64.45
2019-02-15T01:58:56.070Z,64.83
2019-02-15T01:59:59.705Z,64.51
2019-02-15T02:01:03.414Z,64.30
2019-02-15T02:02:07.058Z,64.42
2019-02-15T02:03:10.736Z,64.38
2019-02-15T02:04:14.804Z,64.19
2019-02-15T02:05:18.448Z,64.32
2019-02-15T02:06:22.161Z,64.49
2019-02-15T02:07:25.977Z,64.27
2019-02-15T02:08:29.961Z,64.35
2019-02-15T02:09:33.610Z,64.13
2019-02-15T02:10:37.322Z,64.13
2019-02-15T02:11:40.963Z,64.42
2019-02-15T02:12:44.675Z,64.13
2019-02-15T02:13:49.877Z,64.13
2019-02-15T02:14:53.715Z,64.02
2019-02-15T02:15:57.272Z,64.26
2019-02-15T02:17:00.986Z,64.18
2019-02-15T02:18:04.687Z,64.16
2019-02-15T02:19:08.365Z,64.43
2019-02-15T02:20:12.012Z,64.52
2019-02-15T02:21:15.726Z,64.70
2019-02-15T02:22:19.434Z,65.05
2019-02-15T02:23:23.080Z,65.01
2019-02-15T02:24:26.864Z,64.97
2019-02-15T02:25:30.886Z,65.08
2019-02-15T02:26:34.547Z,64.93
2019-02-15T02:27:38.258Z,64.85
2019-02-15T02:28:42.047Z,64.99
2019-02-15T02:29:45.718Z,64.94
2019-02-15T02:30:49.377Z,64.85
2019-02-15T02:31:53.455Z,64.95
2019-02-15T02:32:57.109Z,64.91
2019-02-15T02:34:00.797Z,64.83
2019-02-15T02:35:05.948Z,65.07
2019-02-15T02:36:09.591Z,65.22
2019-02-15T02:37:13.243Z,65.07
2019-02-15T02:38:16.960Z,65.08
2019-02-15T02:39:20.947Z,65.12
2019-02-15T02:40:24.685Z,64.92
2019-02-15T02:41:28.330Z,65.03
2019-02-15T02:42:31.975Z,64.91
2019-02-15T02:43:35.618Z,64.78
2019-02-15T02:44:39.822Z,64.63
2019-02-15T02:45:43.510Z,64.64
2019-02-15T02:46:47.217Z,64.88
2019-02-15T02:47:50.859Z,64.89
2019-02-15T02:48:54.519Z,64.96
2019-02-15T02:49:58.157Z,64.83
2019-02-15T02:51:01.906Z,64.75
2019-02-15T02:52:05.622Z,64.91
2019-02-15T02:53:09.270Z,65.32
2019-02-15T02:54:12.849Z,65.00
2019-02-15T02:55:16.497Z,65.34
2019-02-15T02:56:20.181Z,65.47
2019-02-15T02:57:23.825Z,65.55
2019-02-15T02:58:27.472Z,65.42
2019-02-15T02:59:31.121Z,65.41
2019-02-15T03:00:34.767Z,65.79
2019-02-15T03:01:38.488Z,65.91
2019-02-15T03:02:42.126Z,65.92
2019-02-15T03:03:46.128Z,65.79
2019-02-15T03:04:49.772Z,66.16
2019-02-15T03:05:53.414Z,66.55
2019-02-15T03:06:57.093Z,66.71
2019-02-15T03:08:00.731Z,66.88
2019-02-15T03:09:07.335Z,67.20
2019-02-15T03:10:11.020Z,67.53
2019-02-15T03:11:14.629Z,67.78
2019-02-15T03:12:18.280Z,68.47
2019-02-15T03:13:21.921Z,68.71
2019-02-15T03:14:25.621Z,68.96
2019-02-15T03:15:29.281Z,69.31
2019-02-15T03:16:32.919Z,69.95
2019-02-15T03:17:36.600Z,70.17
2019-02-15T03:18:40.250Z,70.78
2019-02-15T03:19:43.893Z,71.18
2019-02-15T03:20:47.473Z,71.34
2019-02-15T03:21:51.034Z,71.21
2019-02-15T03:22:54.717Z,71.23
2019-02-15T03:23:58.397Z,71.76
2019-02-15T03:25:02.126Z,72.46
2019-02-15T03:26:05.788Z,72.46
2019-02-15T03:27:09.411Z,72.33
2019-02-15T03:28:13.050Z,72.65
2019-02-15T03:29:16.776Z,72.80
2019-02-15T03:30:20.380Z,72.86
2019-02-15T03:31:23.915Z,72.61
2019-02-15T03:32:27.578Z,72.75
2019-02-15T03:33:31.207Z,73.14
2019-02-15T03:34:36.403Z,73.02
2019-02-15T03:35:41.985Z,73.24
2019-02-15T03:36:47.278Z,73.35
2019-02-15T03:37:55.421Z,73.23
2019-02-15T03:39:00.687Z,73.08
2019-02-15T03:40:08.075Z,73.19
2019-02-15T03:41:28.342Z,73.22
2019-02-15T03:42:31.964Z,73.41
2019-02-15T03:43:35.531Z,73.48
2019-02-15T03:44:39.545Z,73.46
2019-02-15T03:45:43.930Z,73.43
2019-02-15T03:46:47.574Z,73.66
2019-02-15T03:47:51.229Z,73.59
2019-02-15T03:48:54.857Z,73.52
2019-02-15T03:49:58.502Z,73.42
2019-02-15T03:51:02.171Z,73.42
2019-02-15T03:52:05.816Z,73.32
2019-02-15T03:53:09.472Z,72.96
2019-02-15T03:54:13.365Z,72.87
2019-02-15T03:55:17.014Z,73.05
2019-02-15T03:56:20.688Z,72.91
2019-02-15T03:57:24.324Z,72.59
2019-02-15T03:58:28.023Z,72.54
2019-02-15T03:59:31.695Z,72.88
2019-02-15T04:00:35.332Z,72.78
2019-02-15T04:01:38.996Z,72.90
2019-02-15T04:02:42.623Z,72.70
2019-02-15T04:03:46.274Z,72.59
2019-02-15T04:04:49.924Z,72.61
2019-02-15T04:05:53.647Z,72.63
2019-02-15T04:06:57.328Z,72.42
2019-02-15T04:08:01.045Z,72.45
2019-02-15T04:09:05.524Z,72.16
2019-02-15T04:10:09.768Z,72.14
2019-02-15T04:11:13.426Z,72.16
2019-02-15T04:12:17.045Z,72.06
2019-02-15T04:13:20.765Z,72.12
2019-02-15T04:14:32.518Z,72.09
2019-02-15T04:15:29.868Z,72.21
2019-02-15T04:16:33.511Z,72.23
2019-02-15T04:17:37.183Z,72.21
2019-02-15T04:18:40.893Z,71.81
2019-02-15T04:19:44.478Z,71.87
2019-02-15T04:20:48.449Z,72.08
2019-02-15T04:21:52.158Z,71.96
2019-02-15T04:22:55.826Z,71.80
2019-02-15T04:23:59.478Z,72.16
2019-02-15T04:25:03.196Z,72.38
2019-02-15T04:26:06.845Z,72.44
2019-02-15T04:27:10.922Z,72.31
2019-02-15T04:28:14.613Z,72.51
2019-02-15T04:29:18.250Z,72.73
2019-02-15T04:30:21.957Z,72.64
2019-02-15T04:31:25.666Z,72.63
2019-02-15T04:32:29.306Z,72.40
2019-02-15T04:33:33.417Z,72.27
2019-02-15T04:34:37.165Z,72.17
2019-02-15T04:35:40.806Z,72.20
2019-02-15T04:36:44.455Z,71.99
2019-02-15T04:37:48.159Z,72.00
2019-02-15T04:38:51.857Z,72.17
2019-02-15T04:39:55.502Z,72.15
2019-02-15T04:40:59.148Z,72.24
2019-02-15T04:42:03.030Z,72.33
2019-02-15T04:43:06.741Z,71.90
2019-02-15T04:44:10.422Z,71.53
2019-02-15T04:45:14.336Z,71.76
2019-02-15T04:46:17.987Z,71.81
2019-02-15T04:47:21.713Z,71.73
2019-02-15T04:48:25.356Z,71.99
2019-02-15T04:49:29.031Z,71.78
2019-02-15T04:50:32.677Z,71.74
2019-02-15T04:51:36.254Z,71.77
2019-02-15T04:52:39.965Z,71.63
2019-02-15T04:53:43.687Z,71.13
2019-02-15T04:54:47.356Z,71.07
2019-02-15T04:55:51.070Z,71.08
2019-02-15T04:56:54.658Z,71.12
2019-02-15T04:57:58.311Z,70.93
2019-02-15T04:59:02.110Z,70.71
2019-02-15T05:00:08.257Z,70.58
2019-02-15T05:01:11.970Z,70.80
2019-02-15T05:02:15.616Z,70.85
2019-02-15T05:03:19.645Z,70.96
2019-02-15T05:04:23.376Z,70.54
2019-02-15T05:05:27.116Z,70.69
2019-02-15T05:06:30.824Z,70.65
2019-02-15T05:07:36.035Z,70.76
2019-02-15T05:08:39.693Z,70.19
2019-02-15T05:09:43.258Z,70.26
2019-02-15T05:10:47.097Z,70.13
2019-02-15T05:11:50.823Z,70.14
2019-02-15T05:12:54.464Z,70.00
2019-02-15T05:13:58.108Z,70.54
2019-02-15T05:15:01.676Z,71.45
2019-02-15T05:16:05.395Z,70.17
2019-02-15T05:17:09.412Z,69.87
2019-02-15T05:18:13.070Z,70.00
2019-02-15T05:19:16.795Z,69.88
2019-02-15T05:20:20.436Z,70.23
2019-02-15T05:21:24.108Z,70.29
2019-02-15T05:22:27.746Z,70.01
2019-02-15T05:23:31.310Z,69.78
2019-02-15T05:24:34.954Z,69.70
2019-02-15T05:25:38.534Z,69.26
2019-02-15T05:26:42.207Z,68.90
2019-02-15T05:27:45.845Z,68.69
2019-02-15T05:28:49.549Z,68.46
2019-02-15T05:29:53.065Z,68.27
2019-02-15T05:30:56.726Z,68.09
2019-02-15T05:32:00.719Z,67.94
2019-02-15T05:33:04.739Z,68.06
2019-02-15T05:34:08.355Z,67.88
2019-02-15T05:35:12.625Z,67.67
2019-02-15T05:36:16.346Z,67.78
2019-02-15T05:37:20.007Z,67.44
2019-02-15T05:38:23.716Z,67.19
2019-02-15T05:39:27.360Z,67.31
2019-02-15T05:40:31.042Z,66.85
2019-02-15T05:41:34.720Z,66.74
2019-02-15T05:42:38.351Z,66.61
2019-02-15T05:43:42.032Z,66.44
2019-02-15T05:44:45.677Z,66.42
2019-02-15T05:45:49.344Z,66.24
2019-02-15T05:46:52.978Z,66.53
2019-02-15T05:47:56.669Z,65.93
2019-02-15T05:49:00.757Z,66.01
2019-02-15T05:50:05.108Z,65.89
2019-02-15T05:51:08.756Z,66.18
2019-02-15T05:52:12.419Z,66.33
2019-02-15T05:53:16.126Z,66.34
2019-02-15T05:54:19.931Z,67.11
2019-02-15T05:55:23.579Z,67.61
2019-02-15T05:56:27.219Z,67.35
2019-02-15T05:57:30.881Z,67.55
2019-02-15T05:58:34.526Z,67.79
2019-02-15T05:59:38.214Z,68.00
2019-02-15T06:00:41.863Z,68.02
2019-02-15T06:01:45.590Z,68.49
2019-02-15T06:02:49.165Z,68.38
2019-02-15T06:03:52.805Z,68.14
2019-02-15T06:04:56.410Z,68.41
2019-02-15T06:06:00.187Z,68.24
2019-02-15T06:07:03.827Z,67.61
2019-02-15T06:08:07.462Z,67.32
2019-02-15T06:09:11.448Z,67.13
2019-02-15T06:10:15.125Z,68.06
2019-02-15T06:11:18.764Z,68.69
2019-02-15T06:12:22.418Z,68.40
2019-02-15T06:13:26.060Z,68.45
2019-02-15T06:14:29.709Z,68.49
2019-02-15T06:15:33.389Z,67.98
2019-02-15T06:16:37.072Z,68.25
2019-02-15T06:17:40.709Z,68.31
2019-02-15T06:18:44.278Z,68.15
2019-02-15T06:19:48.071Z,67.88
2019-02-15T06:20:51.860Z,68.00
2019-02-15T06:21:55.572Z,67.82
2019-02-15T06:22:59.085Z,67.61
2019-02-15T06:24:03.118Z,67.61
2019-02-15T06:25:06.861Z,67.23
2019-02-15T06:26:10.604Z,66.88
2019-02-15T06:27:14.315Z,66.61
2019-02-15T06:28:18.027Z,66.30
2019-02-15T06:29:21.675Z,65.74
2019-02-15T06:30:25.385Z,65.77
2019-02-15T06:31:29.139Z,65.64
2019-02-15T06:32:32.808Z,65.30
2019-02-15T06:33:36.390Z,65.26
2019-02-15T06:34:40.023Z,65.07
2019-02-15T06:35:43.824Z,64.43
2019-02-15T06:36:47.614Z,64.65
2019-02-15T06:37:51.312Z,64.41
2019-02-15T06:38:54.950Z,63.82
2019-02-15T06:39:58.600Z,63.66
2019-02-15T06:41:02.273Z,64.14
2019-02-15T06:42:06.041Z,64.05
2019-02-15T06:43:09.688Z,64.12
2019-02-15T06:44:14.338Z,63.80
2019-02-15T06:45:24.392Z,64.29
2019-02-15T06:46:23.414Z,64.40
2019-02-15T06:47:27.106Z,64.79
2019-02-15T06:48:30.667Z,64.53
2019-02-15T06:49:34.658Z,64.65
2019-02-15T06:50:38.286Z,64.70
2019-02-15T06:51:41.996Z,64.42
2019-02-15T06:52:45.728Z,64.80
2019-02-15T06:53:49.364Z,65.40
2019-02-15T06:54:53.390Z,65.25
2019-02-15T06:55:58.049Z,65.12
2019-02-15T06:57:01.786Z,64.70
2019-02-15T06:58:05.539Z,64.58
2019-02-15T06:59:22.971Z,64.73
2019-02-15T07:00:37.348Z,63.97
2019-02-15T07:01:42.609Z,63.93
2019-02-15T07:02:50.553Z,64.19
2019-02-15T07:03:55.890Z,64.01
2019-02-15T07:05:13.562Z,64.25
2019-02-15T07:06:17.275Z,64.14
2019-02-15T07:07:20.960Z,64.20
2019-02-15T07:08:24.596Z,63.92
2019-02-15T07:09:28.509Z,63.89
2019-02-15T07:10:32.155Z,63.39
2019-02-15T07:11:35.880Z,63.58
2019-02-15T07:12:39.590Z,63.29
2019-02-15T07:13:43.225Z,62.59
2019-02-15T07:14:46.821Z,62.93
2019-02-15T07:15:50.528Z,62.84
2019-02-15T07:16:54.239Z,62.65
2019-02-15T07:17:59.523Z,62.81
2019-02-15T07:19:04.688Z,62.87
2019-02-15T07:20:10.068Z,62.86
2019-02-15T07:21:16.526Z,61.91
2019-02-15T07:22:20.230Z,61.94
2019-02-15T07:23:23.856Z,61.80
2019-02-15T07:24:27.497Z,60.76
2019-02-15T07:25:31.165Z,59.97
2019-02-15T07:26:34.868Z,60.06
2019-02-15T07:27:38.579Z,59.11
2019-02-15T07:28:42.213Z,59.20
2019-02-15T07:29:45.849Z,59.09
2019-02-15T07:30:49.516Z,58.59
2019-02-15T07:31:53.078Z,58.18
2019-02-15T07:32:57.021Z,57.84
2019-02-15T07:34:00.656Z,58.19
2019-02-15T07:35:05.083Z,57.45
2019-02-15T07:36:09.128Z,56.94
2019-02-15T07:37:12.796Z,56.52
2019-02-15T07:38:16.430Z,55.83
2019-02-15T07:39:19.991Z,55.57
2019-02-15T07:40:23.679Z,55.08
2019-02-15T07:41:27.333Z,55.16
2019-02-15T07:42:30.970Z,55.42
2019-02-15T07:43:36.220Z,54.65
2019-02-15T07:44:42.522Z,55.33
2019-02-15T07:45:46.144Z,54.73
2019-02-15T07:46:49.827Z,54.91
2019-02-15T07:47:53.452Z,54.37
2019-02-15T07:48:57.085Z,53.96
2019-02-15T07:50:00.948Z,53.41
2019-02-15T07:51:09.577Z,53.19
2019-02-15T07:52:12.150Z,53.14
2019-02-15T07:53:15.778Z,53.64
2019-02-15T07:54:19.694Z,53.41
2019-02-15T07:55:26.090Z,53.02
2019-02-15T07:56:32.548Z,53.16
2019-02-15T07:57:36.206Z,52.43
2019-02-15T07:58:41.272Z,52.04
2019-02-15T07:59:44.908Z,52.00
2019-02-15T08:00:48.541Z,52.15
2019-02-15T08:02:01.339Z,52.21
2019-02-15T08:02:57.794Z,52.33
2019-02-15T08:04:01.424Z,52.05
2019-02-15T08:05:07.071Z,52.06
2019-02-15T08:06:10.842Z,50.01
2019-02-15T08:07:14.459Z,49.83
2019-02-15T08:08:18.449Z,48.36
2019-02-15T08:09:22.073Z,48.59
2019-02-15T08:10:25.699Z,47.36
2019-02-15T08:11:29.380Z,47.53
2019-02-15T08:12:33.366Z,48.19
2019-02-15T08:13:37.088Z,46.51
2019-02-15T08:14:40.725Z,47.19
2019-02-15T08:15:51.543Z,47.19
2019-02-15T08:16:50.078Z,47.95
2019-02-15T08:17:53.637Z,47.73
2019-02-15T08:18:57.412Z,46.02
2019-02-15T08:20:01.339Z,46.25
2019-02-15T08:21:05.158Z,46.16
2019-02-15T08:22:08.802Z,45.88
2019-02-15T08:23:12.431Z,46.42
2019-02-15T08:24:16.044Z,47.09
2019-02-15T08:25:20.289Z,47.55
2019-02-15T08:26:23.928Z,46.84
2019-02-15T08:27:31.406Z,46.28
2019-02-15T08:28:34.918Z,46.28
2019-02-15T08:29:38.581Z,46.27
2019-02-15T08:30:42.216Z,46.17
2019-02-15T08:31:45.860Z,46.09
2019-02-15T08:32:49.493Z,46.09
2019-02-15T08:33:53.129Z,44.59
2019-02-15T08:34:56.801Z,43.69
2019-02-15T08:36:00.426Z,43.69
2019-02-15T08:37:04.062Z,44.36
2019-02-15T08:38:07.690Z,44.36
2019-02-15T08:39:11.416Z,43.21
2019-02-15T08:40:15.160Z,43.79
2019-02-15T08:41:18.713Z,42.93
2019-02-15T08:42:22.427Z,43.59
2019-02-15T08:43:26.073Z,44.44
2019-02-15T08:44:29.714Z,44.44
2019-02-15T08:45:33.441Z,44.63
2019-02-15T08:46:37.070Z,44.63
2019-02-15T08:47:40.901Z,45.30
2019-02-15T08:48:46.505Z,44.84
2019-02-15T08:49:49.870Z,45.49
2019-02-15T08:50:53.616Z,45.40
2019-02-15T08:51:57.320Z,44.84
2019-02-15T08:53:00.934Z,45.63
2019-02-15T08:54:04.983Z,45.06
2019-02-15T08:55:12.102Z,44.88
2019-02-15T08:56:15.765Z,45.11
2019-02-15T08:57:19.392Z,44.89
2019-02-15T08:58:23.025Z,44.97
2019-02-15T08:59:26.510Z,44.94
2019-02-15T09:00:30.204Z,44.90
2019-02-15T09:01:33.865Z,45.21
2019-02-15T09:02:37.500Z,45.35
2019-02-15T09:03:41.133Z,45.09
2019-02-15T09:04:44.837Z,44.71
2019-02-15T09:05:48.536Z,44.84
2019-02-15T09:06:52.192Z,44.49
2019-02-15T09:07:55.818Z,44.56
2019-02-15T09:08:59.767Z,44.22
2019-02-15T09:10:04.260Z,44.66
2019-02-15T09:11:07.966Z,44.96
2019-02-15T09:12:11.619Z,45.23
2019-02-15T09:13:15.250Z,45.04
2019-02-15T09:14:18.946Z,45.49
2019-02-15T09:15:23.947Z,45.34
2019-02-15T09:16:27.578Z,45.57
2019-02-15T09:17:31.167Z,45.79
2019-02-15T09:18:34.958Z,46.26
2019-02-15T09:19:38.651Z,45.84
2019-02-15T09:20:42.215Z,46.44
2019-02-15T09:21:45.846Z,45.88
2019-02-15T09:22:49.886Z,45.39
2019-02-15T09:23:53.590Z,45.73
2019-02-15T09:24:57.270Z,45.11
2019-02-15T09:26:01.270Z,44.70
2019-02-15T09:27:06.545Z,44.87
2019-02-15T09:28:16.724Z,45.55
2019-02-15T09:29:20.425Z,44.55
2019-02-15T09:30:24.134Z,43.79
2019-02-15T09:31:27.762Z,43.68
2019-02-15T09:32:31.394Z,44.45
2019-02-15T09:33:35.418Z,43.77
2019-02-15T09:34:39.128Z,43.77
2019-02-15T09:35:42.823Z,42.65
2019-02-15T09:36:46.455Z,41.87
2019-02-15T09:37:50.458Z,41.54
2019-02-15T09:38:54.499Z,40.72
2019-02-15T09:39:58.197Z,40.72
2019-02-15T09:41:01.836Z,40.06
2019-02-15T09:42:05.556Z,40.58
2019-02-15T09:43:09.114Z,40.20
2019-02-15T09:44:12.780Z,39.44
2019-02-15T09:45:16.494Z,40.07
2019-02-15T09:46:20.425Z,40.07
2019-02-15T09:47:24.130Z,39.54
2019-02-15T09:48:27.766Z,39.08
2019-02-15T09:49:31.432Z,38.79
2019-02-15T09:50:35.143Z,40.06
2019-02-15T09:51:38.770Z,39.82
2019-02-15T09:52:42.408Z,39.82
2019-02-15T09:53:46.050Z,40.49
2019-02-15T09:54:49.869Z,38.96
2019-02-15T09:55:53.503Z,39.31
2019-02-15T09:56:57.065Z,39.58
2019-02-15T09:58:01.113Z,39.58
2019-02-15T09:59:04.745Z,40.74
2019-02-15T10:00:10.187Z,40.56
2019-02-15T10:01:13.817Z,40.42
2019-02-15T10:02:17.447Z,40.53
2019-02-15T10:03:21.081Z,40.89
2019-02-15T10:04:24.707Z,40.89
2019-02-15T10:05:28.380Z,40.43
2019-02-15T10:06:31.930Z,41.10
2019-02-15T10:07:35.561Z,41.20
2019-02-15T10:08:39.194Z,41.20
2019-02-15T10:09:42.889Z,41.90
2019-02-15T10:10:46.672Z,40.90
2019-02-15T10:11:50.304Z,41.70
2019-02-15T10:12:53.936Z,40.91
2019-02-15T10:13:57.568Z,40.91
2019-02-15T10:15:01.204Z,40.90
2019-02-15T10:16:04.862Z,40.90
2019-02-15T10:17:08.507Z,41.13
2019-02-15T10:18:12.126Z,41.12
2019-02-15T10:19:22.176Z,41.66
2019-02-15T10:20:21.032Z,41.30
2019-02-15T10:21:24.700Z,41.63
2019-02-15T10:22:28.331Z,41.91
2019-02-15T10:23:31.979Z,41.91
2019-02-15T10:24:35.613Z,41.39
2019-02-15T10:25:39.398Z,41.41
2019-02-15T10:26:43.346Z,41.26
2019-02-15T10:27:46.982Z,40.75
2019-02-15T10:28:50.975Z,41.63
2019-02-15T10:29:54.554Z,42.37
2019-02-15T10:30:58.180Z,42.42
2019-02-15T10:32:01.851Z,41.37
2019-02-15T10:33:05.491Z,41.89
2019-02-15T10:34:09.118Z,41.76
2019-02-15T10:35:12.752Z,41.05
2019-02-15T10:36:16.382Z,41.67
2019-02-15T10:37:20.046Z,42.52
2019-02-15T10:38:23.976Z,42.42
2019-02-15T10:39:27.539Z,42.21
2019-02-15T10:40:31.186Z,42.77
2019-02-15T10:41:34.822Z,42.77
2019-02-15T10:42:38.504Z,42.26
2019-02-15T10:43:42.076Z,42.22
2019-02-15T10:44:45.805Z,41.50
2019-02-15T10:45:49.435Z,42.43
2019-02-15T10:46:53.065Z,41.86
2019-02-15T10:47:56.729Z,41.79
2019-02-15T10:49:00.738Z,42.55
2019-02-15T10:50:05.794Z,42.47
2019-02-15T10:51:09.414Z,42.24
2019-02-15T10:52:13.044Z,42.03
2019-02-15T10:53:16.703Z,42.78
2019-02-15T10:54:20.708Z,42.06
2019-02-15T10:55:24.337Z,42.05
2019-02-15T10:56:27.974Z,41.83
2019-02-15T10:57:31.613Z,41.91
2019-02-15T10:58:35.436Z,41.28
2019-02-15T10:59:39.065Z,41.94
2019-02-15T11:00:42.815Z,41.52
2019-02-15T11:01:46.522Z,41.66
2019-02-15T11:02:50.223Z,42.16
2019-02-15T11:03:53.892Z,41.79
2019-02-15T11:04:57.519Z,41.63
2019-02-15T11:06:01.216Z,41.42
2019-02-15T11:07:04.856Z,41.36
2019-02-15T11:08:08.612Z,41.23
2019-02-15T11:09:12.858Z,41.51
2019-02-15T11:10:16.479Z,41.83
2019-02-15T11:11:20.413Z,41.90
2019-02-15T11:12:24.122Z,41.70
2019-02-15T11:13:27.851Z,41.35
2019-02-15T11:14:33.693Z,41.14
2019-02-15T11:15:37.347Z,41.55
2019-02-15T11:16:46.947Z,41.41
2019-02-15T11:17:46.538Z,41.64
2019-02-15T11:18:50.266Z,41.82
2019-02-15T11:19:53.986Z,41.37
2019-02-15T11:20:57.683Z,41.09
2019-02-15T11:22:01.560Z,41.45
2019-02-15T11:23:07.960Z,41.75
2019-02-15T11:24:11.665Z,42.27
2019-02-15T11:25:15.431Z,41.92
2019-02-15T11:26:24.820Z,41.77
2019-02-15T11:27:24.997Z,42.08
2019-02-15T11:28:30.669Z,41.66
2019-02-15T11:29:34.376Z,41.75
2019-02-15T11:30:38.047Z,41.93
2019-02-15T11:31:41.784Z,42.19
2019-02-15T11:32:45.582Z,42.19
2019-02-15T11:33:49.217Z,41.52
2019-02-15T11:34:52.869Z,42.33
2019-02-15T11:35:56.623Z,42.72
2019-02-15T11:37:00.330Z,43.01
2019-02-15T11:38:03.985Z,42.66
2019-02-15T11:39:09.077Z,41.99
2019-02-15T11:40:15.973Z,42.43
2019-02-15T11:41:19.628Z,42.43
2019-02-15T11:42:23.257Z,42.63
2019-02-15T11:43:26.959Z,42.86
2019-02-15T11:44:30.653Z,43.13
2019-02-15T11:45:34.280Z,43.73
2019-02-15T11:46:37.944Z,43.36
2019-02-15T11:47:41.721Z,43.29
2019-02-15T11:48:45.355Z,43.86
2019-02-15T11:49:48.904Z,44.01
2019-02-15T11:50:53.534Z,44.23
2019-02-15T11:51:57.278Z,44.79
2019-02-15T11:53:01.008Z,44.71
2019-02-15T11:54:04.851Z,44.60
2019-02-15T11:55:10.182Z,44.05
2019-02-15T11:56:13.814Z,44.07
2019-02-15T11:57:17.474Z,43.97
2019-02-15T11:58:21.104Z,43.83
2019-02-15T11:59:24.729Z,43.78
2019-02-15T12:00:37.537Z,44.40
2019-02-15T12:01:41.153Z,43.49
2019-02-15T12:02:44.894Z,43.85
2019-02-15T12:03:48.631Z,43.85
2019-02-15T12:04:52.280Z,43.87
2019-02-15T12:05:55.942Z,43.94
2019-02-15T12:06:59.518Z,43.63
2019-02-15T12:08:03.242Z,44.63
2019-02-15T12:09:06.943Z,44.57
2019-02-15T12:10:11.660Z,44.57
2019-02-15T12:11:15.695Z,44.22
2019-02-15T12:12:19.317Z,44.59
2019-02-15T12:13:23.029Z,44.48
2019-02-15T12:14:26.715Z,44.56
2019-02-15T12:15:30.387Z,44.94
2019-02-15T12:16:34.683Z,45.03
2019-02-15T12:17:38.411Z,44.78
2019-02-15T12:18:42.463Z,44.55
2019-02-15T12:19:46.207Z,45.00
2019-02-15T12:20:49.910Z,45.02
2019-02-15T12:21:53.570Z,44.50
2019-02-15T12:22:57.266Z,45.39
2019-02-15T12:24:01.426Z,45.74
2019-02-15T12:25:05.646Z,46.26
2019-02-15T12:26:09.279Z,46.05
2019-02-15T12:27:12.993Z,45.78
2019-02-15T12:28:16.687Z,45.57
2019-02-15T12:29:20.342Z,45.14
2019-02-15T12:30:23.970Z,44.98
2019-02-15T12:31:27.616Z,44.87
2019-02-15T12:32:31.319Z,44.68
2019-02-15T12:33:35.429Z,45.04
2019-02-15T12:34:39.108Z,45.14
2019-02-15T12:35:42.742Z,45.51
2019-02-15T12:36:46.367Z,46.02
2019-02-15T12:38:08.036Z,45.90
2019-02-15T12:39:14.232Z,45.85
2019-02-15T12:40:17.287Z,46.67
2019-02-15T12:41:20.900Z,46.37
2019-02-15T12:42:24.548Z,46.13
2019-02-15T12:43:28.115Z,46.34
2019-02-15T12:44:31.758Z,46.15
2019-02-15T12:45:35.436Z,46.35
2019-02-15T12:46:39.152Z,46.41
2019-02-15T12:47:42.792Z,46.50
2019-02-15T12:48:46.419Z,46.40
2019-02-15T12:49:50.055Z,46.84
2019-02-15T12:50:53.720Z,46.67
2019-02-15T12:51:57.348Z,46.96
2019-02-15T12:53:01.038Z,46.61
2019-02-15T12:54:04.689Z,46.56
2019-02-15T12:55:08.598Z,46.61
2019-02-15T12:56:12.287Z,47.21
2019-02-15T12:57:15.904Z,47.55
2019-02-15T12:58:19.548Z,47.37
2019-02-15T12:59:23.254Z,47.61
2019-02-15T13:00:26.892Z,48.55
2019-02-15T13:01:30.563Z,47.78
2019-02-15T13:02:34.195Z,47.38
2019-02-15T13:03:37.829Z,47.82
2019-02-15T13:04:41.469Z,47.29
2019-02-15T13:05:45.102Z,48.58
2019-02-15T13:06:48.766Z,48.15
2019-02-15T13:07:52.464Z,48.68
2019-02-15T13:08:56.096Z,48.47
2019-02-15T13:09:59.740Z,48.66
2019-02-15T13:11:03.454Z,48.75
2019-02-15T13:12:07.116Z,49.24
2019-02-15T13:13:10.759Z,48.88
2019-02-15T13:14:14.461Z,48.80
2019-02-15T13:15:18.155Z,48.67
2019-02-15T13:16:21.798Z,48.61
2019-02-15T13:17:25.537Z,48.44
2019-02-15T13:18:29.252Z,48.37
2019-02-15T13:19:32.881Z,48.40
2019-02-15T13:20:36.514Z,48.69
2019-02-15T13:21:40.151Z,48.33
2019-02-15T13:22:43.811Z,48.78
2019-02-15T13:23:47.447Z,48.43
2019-02-15T13:24:51.079Z,48.31
2019-02-15T13:25:54.996Z,48.36
2019-02-15T13:26:58.737Z,48.45
2019-02-15T13:28:02.497Z,48.31
2019-02-15T13:29:06.228Z,48.09
2019-02-15T13:30:13.188Z,48.13
2019-02-15T13:31:16.830Z,48.20
2019-02-15T13:32:20.535Z,47.67
2019-02-15T13:33:24.291Z,47.87
2019-02-15T13:34:27.923Z,47.32
2019-02-15T13:35:31.626Z,47.57
2019-02-15T13:36:35.257Z,47.58
2019-02-15T13:37:38.890Z,48.28
2019-02-15T13:38:42.549Z,48.15
2019-02-15T13:39:46.240Z,48.21
2019-02-15T13:40:49.942Z,47.87
2019-02-15T13:41:53.642Z,47.98
2019-02-15T13:42:57.279Z,48.08
2019-02-15T13:44:00.879Z,47.76
2019-02-15T13:45:06.381Z,48.25
2019-02-15T13:46:10.399Z,48.11
2019-02-15T13:47:14.032Z,48.20
2019-02-15T13:48:17.674Z,48.46